createdAt,value
2023-02-11T00:01:25.078Z,-10.63
2023-02-11T00:03:53.615Z,-10.72
2023-02-11T00:06:25.008Z,-10.93
2023-02-11T00:08:53.022Z,-11.04
2023-02-11T00:11:22.688Z,-10.99
2023-02-11T00:13:50.720Z,-11.03
2023-02-11T00:16:21.397Z,-11.04
2023-02-11T00:18:50.521Z,-11.19
2023-02-11T00:21:21.347Z,-11.25
2023-02-11T00:23:49.620Z,-11.17
2023-02-11T00:26:25.443Z,-11.03
2023-02-11T00:28:53.654Z,-10.95
2023-02-11T00:31:23.399Z,-11.01
2023-02-11T00:33:51.778Z,-11.14
2023-02-11T00:36:26.203Z,-11.14
2023-02-11T00:38:56.066Z,-11.12
2023-02-11T00:41:24.547Z,-10.98
2023-02-11T00:43:52.673Z,-10.92
2023-02-11T00:46:21.995Z,-10.94
2023-02-11T00:48:51.929Z,-10.88
2023-02-11T00:51:22.448Z,-10.81
2023-02-11T00:53:50.699Z,-10.84
2023-02-11T00:56:19.008Z,-11.01
2023-02-11T00:58:47.156Z,-11.02
2023-02-11T01:01:15.304Z,-11.14
2023-02-11T01:03:44.474Z,-11.22
2023-02-11T01:06:12.760Z,-11.20
2023-02-11T01:08:40.959Z,-11.13
2023-02-11T01:11:16.688Z,-11.16
2023-02-11T01:13:47.817Z,-11.27
2023-02-11T01:16:18.740Z,-11.24
2023-02-11T01:18:47.405Z,-11.16
2023-02-11T01:21:16.319Z,-11.16
2023-02-11T01:23:44.544Z,-11.07
2023-02-11T01:26:13.831Z,-11.02
2023-02-11T01:28:41.935Z,-10.95
2023-02-11T01:31:10.284Z,-11.02
2023-02-11T01:33:38.647Z,-11.13
2023-02-11T01:36:08.586Z,-11.17
2023-02-11T01:38:37.001Z,-11.12
2023-02-11T01:41:11.963Z,-11.08
2023-02-11T01:43:46.311Z,-11.26
2023-02-11T01:46:31.709Z,-11.26
2023-02-11T01:49:18.655Z,-11.22
2023-02-11T01:52:06.495Z,-11.09
2023-02-11T01:54:57.069Z,-11.19
2023-02-11T01:57:29.548Z,-11.46
2023-02-11T02:00:21.079Z,-11.49
2023-02-11T02:03:22.726Z,-11.44
2023-02-11T02:06:15.451Z,-11.57
2023-02-11T02:08:50.425Z,-11.64
2023-02-11T02:11:18.687Z,-11.63
2023-02-11T02:13:47.068Z,-11.66
2023-02-11T02:16:18.021Z,-11.65
2023-02-11T02:19:14.190Z,-11.54
2023-02-11T02:22:07.996Z,-11.36
2023-02-11T02:24:42.043Z,-11.22
2023-02-11T02:27:20.123Z,-11.24
2023-02-11T02:29:54.317Z,-11.34
2023-02-11T02:32:22.343Z,-11.42
2023-02-11T02:34:58.381Z,-11.34
2023-02-11T02:38:00.179Z,-11.25
2023-02-11T02:40:45.030Z,-11.32
2023-02-11T02:43:15.444Z,-11.58
2023-02-11T02:45:43.418Z,-11.69
2023-02-11T02:48:44.827Z,-11.79
2023-02-11T02:51:42.428Z,-11.92
2023-02-11T02:54:29.580Z,-11.98
2023-02-11T02:57:06.672Z,-11.98
2023-02-11T02:59:50.051Z,-11.89
2023-02-11T03:02:35.105Z,-11.81
2023-02-11T03:05:32.555Z,-11.86
2023-02-11T03:08:12.379Z,-11.75
2023-02-11T03:10:51.381Z,-11.70
2023-02-11T03:13:25.378Z,-11.61
2023-02-11T03:15:57.452Z,-11.52
2023-02-11T03:18:28.971Z,-11.49
2023-02-11T03:20:57.712Z,-11.36
2023-02-11T03:23:35.467Z,-11.31
2023-02-11T03:26:12.513Z,-11.49
2023-02-11T03:29:03.854Z,-11.60
2023-02-11T03:31:42.386Z,-11.71
2023-02-11T03:34:16.831Z,-11.76
2023-02-11T03:36:49.816Z,-11.77
2023-02-11T03:39:38.017Z,-11.79
2023-02-11T03:42:09.476Z,-11.80
2023-02-11T03:44:50.066Z,-11.80
2023-02-11T03:47:23.629Z,-11.80
2023-02-11T03:49:54.782Z,-11.71
2023-02-11T03:52:24.892Z,-11.61
2023-02-11T03:54:57.204Z,-11.71
2023-02-11T03:57:25.207Z,-11.83
2023-02-11T03:59:58.836Z,-11.86
2023-02-11T04:02:33.863Z,-12.01
2023-02-11T04:05:02.373Z,-11.98
2023-02-11T04:07:30.832Z,-11.83
2023-02-11T04:09:58.850Z,-11.76
2023-02-11T04:12:26.989Z,-11.78
2023-02-11T04:14:55.106Z,-11.91
2023-02-11T04:17:23.450Z,-11.89
2023-02-11T04:19:51.415Z,-11.91
2023-02-11T04:22:19.514Z,-11.84
2023-02-11T04:24:47.653Z,-11.82
2023-02-11T04:27:15.992Z,-12.03
2023-02-11T04:29:44.275Z,-12.19
2023-02-11T04:32:12.548Z,-12.19
2023-02-11T04:34:40.721Z,-12.13
2023-02-11T04:37:08.941Z,-11.99
2023-02-11T04:39:37.003Z,-11.97
2023-02-11T04:42:05.448Z,-11.95
2023-02-11T04:44:33.917Z,-12.03
2023-02-11T04:47:02.250Z,-11.99
2023-02-11T04:49:30.929Z,-12.01
2023-02-11T04:51:59.061Z,-11.96
2023-02-11T04:54:27.641Z,-12.00
2023-02-11T04:56:55.751Z,-12.05
2023-02-11T04:59:24.808Z,-12.16
2023-02-11T05:01:52.897Z,-12.14
2023-02-11T05:04:20.978Z,-12.09
2023-02-11T05:06:49.245Z,-12.11
2023-02-11T05:09:17.829Z,-12.22
2023-02-11T05:11:45.792Z,-12.29
2023-02-11T05:14:13.802Z,-12.27
2023-02-11T05:16:41.945Z,-12.22
2023-02-11T05:19:10.406Z,-12.13
2023-02-11T05:21:38.576Z,-12.00
2023-02-11T05:24:07.461Z,-11.91
2023-02-11T05:26:35.658Z,-11.98
2023-02-11T05:29:03.761Z,-12.05
2023-02-11T05:31:33.002Z,-12.01
2023-02-11T05:34:04.022Z,-11.96
2023-02-11T05:36:33.484Z,-11.94
2023-02-11T05:39:01.720Z,-11.86
2023-02-11T05:41:30.007Z,-11.81
2023-02-11T05:43:58.303Z,-11.90
2023-02-11T05:46:26.450Z,-12.05
2023-02-11T05:48:56.666Z,-12.23
2023-02-11T05:51:25.461Z,-12.25
2023-02-11T05:53:53.801Z,-12.23
2023-02-11T05:56:21.843Z,-12.14
2023-02-11T05:58:50.066Z,-12.08
2023-02-11T06:01:19.062Z,-12.10
2023-02-11T06:03:47.422Z,-12.02
2023-02-11T06:06:15.934Z,-11.98
2023-02-11T06:08:44.098Z,-11.90
2023-02-11T06:11:15.488Z,-11.90
2023-02-11T06:13:44.032Z,-12.00
2023-02-11T06:16:12.353Z,-12.00
2023-02-11T06:18:40.579Z,-11.99
2023-02-11T06:21:10.725Z,-11.89
2023-02-11T06:23:38.789Z,-11.87
2023-02-11T06:26:09.141Z,-11.83
2023-02-11T06:28:39.382Z,-11.85
2023-02-11T06:31:11.956Z,-11.76
2023-02-11T06:33:40.362Z,-11.55
2023-02-11T06:36:22.795Z,-11.48
2023-02-11T06:38:51.260Z,-11.44
2023-02-11T06:41:20.419Z,-11.37
2023-02-11T06:43:49.286Z,-11.22
2023-02-11T06:46:17.617Z,-11.07
2023-02-11T06:48:46.004Z,-10.95
2023-02-11T06:51:15.316Z,-10.78
2023-02-11T06:53:45.918Z,-10.59
2023-02-11T06:56:21.958Z,-10.33
2023-02-11T06:58:54.879Z,-10.10
2023-02-11T07:01:24.508Z,-9.84
2023-02-11T07:03:53.701Z,-9.62
2023-02-11T07:06:24.816Z,-9.50
2023-02-11T07:08:53.214Z,-9.46
2023-02-11T07:11:25.033Z,-9.42
2023-02-11T07:13:55.398Z,-9.36
2023-02-11T07:16:23.816Z,-9.21
2023-02-11T07:18:52.164Z,-8.94
2023-02-11T07:21:22.673Z,-8.63
2023-02-11T07:23:51.879Z,-8.33
2023-02-11T07:26:29.364Z,-8.03
2023-02-11T07:28:57.680Z,-7.73
2023-02-11T07:31:29.034Z,-7.55
2023-02-11T07:34:00.092Z,-7.47
2023-02-11T07:36:30.596Z,-7.30
2023-02-11T07:38:59.083Z,-7.12
2023-02-11T07:41:27.881Z,-6.99
2023-02-11T07:43:56.724Z,-6.75
2023-02-11T07:46:27.119Z,-6.62
2023-02-11T07:48:56.133Z,-6.51
2023-02-11T07:51:27.065Z,-6.58
2023-02-11T07:53:56.698Z,-6.65
2023-02-11T07:56:24.864Z,-6.50
2023-02-11T07:58:53.644Z,-6.32
2023-02-11T08:01:25.439Z,-5.97
2023-02-11T08:03:54.793Z,-5.68
2023-02-11T08:06:24.923Z,-5.47
2023-02-11T08:08:53.252Z,-5.25
2023-02-11T08:11:24.521Z,-5.10
2023-02-11T08:13:53.819Z,-4.88
2023-02-11T08:16:31.342Z,-4.67
2023-02-11T08:19:02.296Z,-4.38
2023-02-11T08:21:30.756Z,-4.07
2023-02-11T08:23:59.429Z,-3.85
2023-02-11T08:26:29.682Z,-3.70
2023-02-11T08:28:58.954Z,-3.48
2023-02-11T08:31:34.260Z,-3.26
2023-02-11T08:34:02.788Z,-3.10
2023-02-11T08:36:34.390Z,-3.03
2023-02-11T08:39:18.053Z,-2.92
2023-02-11T08:41:50.471Z,-2.71
2023-02-11T08:44:20.138Z,-2.48
2023-02-11T08:46:49.107Z,-2.20
2023-02-11T08:49:17.329Z,-1.95
2023-02-11T08:51:46.612Z,-1.75
2023-02-11T08:54:15.215Z,-1.60
2023-02-11T08:56:43.467Z,-1.45
2023-02-11T08:59:14.758Z,-1.31
2023-02-11T09:01:44.667Z,-1.11
2023-02-11T09:04:13.626Z,-0.99
2023-02-11T09:06:42.209Z,-1.10
2023-02-11T09:09:15.220Z,-1.31
2023-02-11T09:11:44.873Z,-1.27
2023-02-11T09:14:22.340Z,-1.02
2023-02-11T09:16:51.865Z,-0.87
2023-02-11T09:19:21.413Z,-0.74
2023-02-11T09:21:49.883Z,-0.53
2023-02-11T09:24:18.672Z,-0.50
2023-02-11T09:26:46.865Z,-0.54
2023-02-11T09:29:15.021Z,-0.43
2023-02-11T09:31:43.281Z,-0.14
2023-02-11T09:34:12.093Z,0.12
2023-02-11T09:36:41.393Z,0.12
2023-02-11T09:39:14.466Z,0.02
2023-02-11T09:41:51.816Z,0.04
2023-02-11T09:44:25.613Z,0.28
2023-02-11T09:47:01.867Z,0.51
2023-02-11T09:49:44.648Z,0.74
2023-02-11T09:52:19.071Z,0.93
2023-02-11T09:54:56.908Z,1.02
2023-02-11T09:57:36.511Z,1.00
2023-02-11T10:00:24.850Z,1.13
2023-02-11T10:02:57.746Z,1.43
2023-02-11T10:06:19.778Z,1.31
2023-02-11T10:09:09.687Z,1.46
2023-02-11T10:11:48.089Z,1.49
2023-02-11T10:14:16.088Z,1.71
2023-02-11T10:16:54.715Z,2.07
2023-02-11T10:19:47.429Z,2.37
2023-02-11T10:22:34.079Z,2.61
2023-02-11T10:25:17.836Z,3.15
2023-02-11T10:27:46.416Z,3.50
2023-02-11T10:30:38.001Z,3.89
2023-02-11T10:33:50.996Z,4.37
2023-02-11T10:36:28.523Z,4.48
2023-02-11T10:39:00.004Z,4.00
2023-02-11T10:41:34.490Z,3.74
2023-02-11T10:44:03.286Z,3.29
2023-02-11T10:46:35.375Z,3.12
2023-02-11T10:49:04.010Z,2.92
2023-02-11T10:51:34.336Z,2.88
2023-02-11T10:54:19.743Z,2.80
2023-02-11T10:56:58.609Z,2.71
2023-02-11T10:59:29.368Z,2.58
2023-02-11T11:02:08.073Z,2.51
2023-02-11T11:04:41.004Z,2.52
2023-02-11T11:07:21.408Z,2.94
2023-02-11T11:09:55.580Z,3.24
2023-02-11T11:12:45.809Z,3.48
2023-02-11T11:15:23.193Z,3.47
2023-02-11T11:18:20.940Z,3.29
2023-02-11T11:20:59.354Z,3.21
2023-02-11T11:23:30.043Z,3.12
2023-02-11T11:26:13.749Z,3.11
2023-02-11T11:28:59.135Z,2.96
2023-02-11T11:31:32.785Z,2.93
2023-02-11T11:34:14.951Z,3.17
2023-02-11T11:36:44.252Z,3.75
2023-02-11T11:39:33.910Z,4.52
2023-02-11T11:42:08.255Z,5.29
2023-02-11T11:44:39.921Z,5.79
2023-02-11T11:47:29.811Z,5.96
2023-02-11T11:50:29.112Z,6.21
2023-02-11T11:53:00.330Z,6.62
2023-02-11T11:55:35.047Z,6.59
2023-02-11T11:58:04.865Z,6.26
2023-02-11T12:01:06.597Z,6.31
2023-02-11T12:03:37.255Z,6.47
2023-02-11T12:06:39.246Z,6.47
2023-02-11T12:09:27.056Z,6.28
2023-02-11T12:12:41.674Z,6.22
2023-02-11T12:15:54.926Z,5.73
2023-02-11T12:18:45.499Z,5.60
2023-02-11T12:21:29.701Z,5.20
2023-02-11T12:24:17.484Z,4.85
2023-02-11T12:26:56.633Z,4.84
2023-02-11T12:29:24.698Z,4.94
2023-02-11T12:32:14.197Z,4.53
2023-02-11T12:35:13.274Z,4.70
2023-02-11T12:38:05.436Z,4.74
2023-02-11T12:41:02.927Z,4.41
2023-02-11T12:43:41.168Z,4.31
2023-02-11T12:46:16.030Z,4.13
2023-02-11T12:48:46.996Z,3.86
2023-02-11T12:51:27.563Z,3.58
2023-02-11T12:54:11.078Z,3.38
2023-02-11T12:56:51.129Z,3.34
2023-02-11T12:59:57.847Z,3.31
2023-02-11T13:02:56.787Z,3.58
2023-02-11T13:05:27.712Z,3.42
2023-02-11T13:08:06.034Z,3.44
2023-02-11T13:10:37.423Z,3.48
2023-02-11T13:13:21.274Z,3.59
2023-02-11T13:15:55.334Z,3.45
2023-02-11T13:18:32.558Z,3.63
2023-02-11T13:21:16.254Z,3.65
2023-02-11T13:23:44.093Z,3.58
2023-02-11T13:26:32.807Z,3.56
2023-02-11T13:29:16.106Z,3.66
2023-02-11T13:31:56.913Z,3.77
2023-02-11T13:34:43.406Z,3.73
2023-02-11T13:37:21.476Z,3.65
2023-02-11T13:40:01.364Z,3.53
2023-02-11T13:42:31.663Z,3.46
2023-02-11T13:45:01.054Z,3.21
2023-02-11T13:47:33.348Z,3.09
2023-02-11T13:50:05.739Z,3.08
2023-02-11T13:52:39.077Z,3.08
2023-02-11T13:55:22.691Z,3.14
2023-02-11T13:58:02.740Z,3.24
2023-02-11T14:00:33.940Z,3.32
2023-02-11T14:03:29.853Z,3.47
2023-02-11T14:06:30.712Z,3.61
2023-02-11T14:09:11.569Z,3.58
2023-02-11T14:11:45.738Z,3.47
2023-02-11T14:14:33.918Z,3.30
2023-02-11T14:17:08.176Z,3.18
2023-02-11T14:19:47.825Z,3.00
2023-02-11T14:22:18.911Z,2.80
2023-02-11T14:25:20.409Z,2.68
2023-02-11T14:27:51.534Z,2.52
2023-02-11T14:30:39.569Z,2.32
2023-02-11T14:33:35.088Z,2.17
2023-02-11T14:36:23.342Z,1.95
2023-02-11T14:39:14.088Z,1.82
2023-02-11T14:41:44.597Z,1.66
2023-02-11T14:44:23.498Z,1.54
2023-02-11T14:46:55.604Z,1.43
2023-02-11T14:49:35.284Z,1.32
2023-02-11T14:52:37.453Z,1.24
2023-02-11T14:55:11.331Z,1.07
2023-02-11T14:57:39.412Z,0.95
2023-02-11T15:00:19.754Z,0.81
2023-02-11T15:02:48.530Z,0.64
2023-02-11T15:05:29.069Z,0.50
2023-02-11T15:08:02.025Z,0.37
2023-02-11T15:10:37.843Z,0.28
2023-02-11T15:13:06.141Z,0.20
2023-02-11T15:15:36.638Z,0.12
2023-02-11T15:18:05.748Z,0.04
2023-02-11T15:20:36.034Z,-0.05
2023-02-11T15:23:09.386Z,-0.14
2023-02-11T15:25:44.415Z,-0.27
2023-02-11T15:28:31.453Z,-0.41
2023-02-11T15:31:06.748Z,-0.51
2023-02-11T15:33:34.952Z,-0.60
2023-02-11T15:36:03.959Z,-0.77
2023-02-11T15:38:32.320Z,-0.98
2023-02-11T15:41:03.391Z,-1.13
2023-02-11T15:44:04.383Z,-1.28
2023-02-11T15:46:38.716Z,-1.41
2023-02-11T15:49:08.637Z,-1.56
2023-02-11T15:51:40.007Z,-1.63
2023-02-11T15:54:18.058Z,-1.67
2023-02-11T15:56:50.871Z,-1.77
2023-02-11T15:59:38.397Z,-1.90
2023-02-11T16:02:16.102Z,-1.97
2023-02-11T16:05:00.014Z,-2.02
2023-02-11T16:07:57.453Z,-2.11
2023-02-11T16:10:30.736Z,-2.24
2023-02-11T16:13:20.008Z,-2.29
2023-02-11T16:15:51.110Z,-2.32
2023-02-11T16:18:37.723Z,-2.41
2023-02-11T16:21:16.283Z,-2.51
2023-02-11T16:23:51.585Z,-2.56
2023-02-11T16:26:26.508Z,-2.61
2023-02-11T16:29:13.289Z,-2.69
2023-02-11T16:31:44.841Z,-2.76
2023-02-11T16:34:21.193Z,-2.83
2023-02-11T16:36:50.844Z,-2.88
2023-02-11T16:39:23.699Z,-2.94
2023-02-11T16:41:52.594Z,-3.01
2023-02-11T16:44:20.642Z,-3.05
2023-02-11T16:46:48.843Z,-3.05
2023-02-11T16:49:24.124Z,-3.10
2023-02-11T16:51:56.949Z,-3.08
2023-02-11T16:54:25.277Z,-3.08
2023-02-11T16:56:53.549Z,-2.87
2023-02-11T16:59:21.926Z,-2.79
2023-02-11T17:01:52.136Z,-2.79
2023-02-11T17:04:25.041Z,-2.78
2023-02-11T17:06:53.133Z,-2.76
2023-02-11T17:09:24.552Z,-2.71
2023-02-11T17:11:52.865Z,-2.59
2023-02-11T17:14:21.017Z,-2.36
2023-02-11T17:16:49.250Z,-2.24
2023-02-11T17:19:22.362Z,-2.19
2023-02-11T17:21:52.780Z,-2.20
2023-02-11T17:24:21.988Z,-2.13
2023-02-11T17:26:50.760Z,-2.04
2023-02-11T17:29:24.544Z,-1.99
2023-02-11T17:31:53.289Z,-1.92
2023-02-11T17:34:23.040Z,-1.88
2023-02-11T17:36:51.859Z,-1.81
2023-02-11T17:39:21.171Z,-1.71
2023-02-11T17:41:49.498Z,-1.63
2023-02-11T17:44:17.673Z,-1.54
2023-02-11T17:46:45.757Z,-1.46
2023-02-11T17:49:13.809Z,-1.40
2023-02-11T17:51:42.064Z,-1.33
2023-02-11T17:54:17.336Z,-1.26
2023-02-11T17:56:46.853Z,-1.20
2023-02-11T17:59:14.981Z,-1.13
2023-02-11T18:01:43.481Z,-1.07
2023-02-11T18:04:18.399Z,-1.04
2023-02-11T18:06:46.553Z,-1.00
2023-02-11T18:09:14.789Z,-0.97
2023-02-11T18:11:42.878Z,-0.95
2023-02-11T18:14:11.289Z,-0.94
2023-02-11T18:16:43.185Z,-0.94
2023-02-11T18:19:12.615Z,-0.93
2023-02-11T18:21:40.779Z,-0.94
2023-02-11T18:24:09.062Z,-0.96
2023-02-11T18:26:37.360Z,-0.96
2023-02-11T18:29:07.111Z,-0.92
2023-02-11T18:31:35.516Z,-0.88
2023-02-11T18:34:07.619Z,-0.86
2023-02-11T18:36:36.307Z,-0.83
2023-02-11T18:39:05.951Z,-0.80
2023-02-11T18:41:34.094Z,-0.77
2023-02-11T18:44:03.392Z,-0.74
2023-02-11T18:46:31.766Z,-0.71
2023-02-11T18:48:59.942Z,-0.69
2023-02-11T18:51:28.485Z,-0.68
2023-02-11T18:53:56.588Z,-0.70
2023-02-11T18:56:27.865Z,-0.71
2023-02-11T18:58:57.298Z,-0.70
2023-02-11T19:01:27.594Z,-0.69
2023-02-11T19:03:58.344Z,-0.67
2023-02-11T19:06:29.099Z,-0.68
2023-02-11T19:09:00.292Z,-0.67
2023-02-11T19:11:50.057Z,-0.67
2023-02-11T19:14:20.078Z,-0.67
2023-02-11T19:16:50.743Z,-0.67
2023-02-11T19:19:20.107Z,-0.64
2023-02-11T19:21:48.947Z,-0.63
2023-02-11T19:24:21.436Z,-0.62
2023-02-11T19:26:51.804Z,-0.63
2023-02-11T19:29:19.865Z,-0.65
2023-02-11T19:31:48.390Z,-0.64
2023-02-11T19:34:19.987Z,-0.64
2023-02-11T19:36:49.935Z,-0.63
2023-02-11T19:39:18.568Z,-0.62
2023-02-11T19:41:46.782Z,-0.62
2023-02-11T19:44:15.009Z,-0.64
2023-02-11T19:46:43.199Z,-0.67
2023-02-11T19:49:16.517Z,-0.68
2023-02-11T19:51:44.861Z,-0.67
2023-02-11T19:54:13.182Z,-0.67
2023-02-11T19:56:41.515Z,-0.67
2023-02-11T19:59:09.727Z,-0.64
2023-02-11T20:01:37.859Z,-0.62
2023-02-11T20:04:06.253Z,-0.60
2023-02-11T20:06:35.474Z,-0.60
2023-02-11T20:09:10.129Z,-0.62
2023-02-11T20:11:39.014Z,-0.61
2023-02-11T20:14:07.560Z,-0.59
2023-02-11T20:16:47.660Z,-0.57
2023-02-11T20:19:20.049Z,-0.56
2023-02-11T20:21:51.169Z,-0.55
2023-02-11T20:24:20.543Z,-0.54
2023-02-11T20:26:49.603Z,-0.55
2023-02-11T20:29:18.143Z,-0.57
2023-02-11T20:31:46.734Z,-0.55
2023-02-11T20:34:17.688Z,-0.56
2023-02-11T20:36:52.089Z,-0.57
2023-02-11T20:39:22.523Z,-0.54
2023-02-11T20:41:51.818Z,-0.49
2023-02-11T20:44:23.964Z,-0.50
2023-02-11T20:46:54.633Z,-0.51
2023-02-11T20:49:24.410Z,-0.52
2023-02-11T20:51:54.107Z,-0.52
2023-02-11T20:54:23.831Z,-0.51
2023-02-11T20:56:55.553Z,-0.52
2023-02-11T20:59:24.501Z,-0.48
2023-02-11T21:01:55.780Z,-0.45
2023-02-11T21:04:29.692Z,-0.45
2023-02-11T21:07:01.704Z,-0.47
2023-02-11T21:09:33.362Z,-0.46
2023-02-11T21:12:02.455Z,-0.47
2023-02-11T21:14:30.718Z,-0.49
2023-02-11T21:16:59.043Z,-0.49
2023-02-11T21:19:27.300Z,-0.50
2023-02-11T21:21:57.349Z,-0.50
2023-02-11T21:24:25.700Z,-0.51
2023-02-11T21:26:54.806Z,-0.52
2023-02-11T21:29:22.921Z,-0.51
2023-02-11T21:31:51.507Z,-0.52
2023-02-11T21:34:20.248Z,-0.52
2023-02-11T21:36:51.310Z,-0.52
2023-02-11T21:39:20.479Z,-0.51
2023-02-11T21:41:48.574Z,-0.49
2023-02-11T21:44:16.600Z,-0.47
2023-02-11T21:46:44.871Z,-0.48
2023-02-11T21:49:13.111Z,-0.48
2023-02-11T21:51:41.253Z,-0.49
2023-02-11T21:54:11.681Z,-0.49
2023-02-11T21:56:40.712Z,-0.47
2023-02-11T21:59:13.993Z,-0.45
2023-02-11T22:01:42.092Z,-0.44
2023-02-11T22:04:10.202Z,-0.42
2023-02-11T22:06:38.707Z,-0.43
2023-02-11T22:09:09.038Z,-0.44
2023-02-11T22:11:37.453Z,-0.43
2023-02-11T22:14:05.517Z,-0.43
2023-02-11T22:16:33.803Z,-0.43
2023-02-11T22:19:07.216Z,-0.43
2023-02-11T22:21:35.154Z,-0.41
2023-02-11T22:24:03.404Z,-0.43
2023-02-11T22:26:31.533Z,-0.42
2023-02-11T22:28:59.570Z,-0.41
2023-02-11T22:31:30.850Z,-0.41
2023-02-11T22:34:00.489Z,-0.45
2023-02-11T22:36:31.497Z,-0.51
2023-02-11T22:39:08.908Z,-0.60
2023-02-11T22:41:40.599Z,-0.69
2023-02-11T22:44:09.748Z,-0.76
2023-02-11T22:46:38.698Z,-0.80
2023-02-11T22:49:07.490Z,-0.83
2023-02-11T22:51:35.893Z,-0.84
2023-02-11T22:54:06.891Z,-0.82
2023-02-11T22:56:35.333Z,-0.77
2023-02-11T22:59:07.604Z,-0.72
2023-02-11T23:01:36.148Z,-0.69
2023-02-11T23:04:06.434Z,-0.63
2023-02-11T23:06:34.968Z,-0.58
2023-02-11T23:09:08.505Z,-0.55
2023-02-11T23:11:36.527Z,-0.52
2023-02-11T23:14:05.445Z,-0.47
2023-02-11T23:16:34.989Z,-0.45
2023-02-11T23:19:07.622Z,-0.39
2023-02-11T23:21:38.614Z,-0.34
2023-02-11T23:24:10.965Z,-0.32
2023-02-11T23:26:40.670Z,-0.31
2023-02-11T23:29:09.354Z,-0.30
2023-02-11T23:31:40.499Z,-0.28
2023-02-11T23:34:09.403Z,-0.24
2023-02-11T23:36:37.988Z,-0.22
2023-02-11T23:39:06.433Z,-0.18
2023-02-11T23:41:34.905Z,-0.17
2023-02-11T23:44:02.921Z,-0.17
2023-02-11T23:46:30.927Z,-0.19
2023-02-11T23:48:59.125Z,-0.22
2023-02-11T23:51:27.185Z,-0.24
2023-02-11T23:53:56.319Z,-0.27
2023-02-11T23:56:27.740Z,-0.28
2023-02-11T23:58:58.725Z,-0.29
